createdAt,value
2019-04-23T00:00:03.740Z,51.18
2019-04-23T00:02:34.347Z,51.47
2019-04-23T00:05:27.140Z,51.58
2019-04-23T00:07:48.425Z,51.66
2019-04-23T00:10:20.855Z,51.96
2019-04-23T00:12:48.743Z,52.16
2019-04-23T00:15:23.995Z,52.46
2019-04-23T00:17:58.456Z,52.43
2019-04-23T00:20:34.000Z,52.45
2019-04-23T00:23:06.078Z,52.79
2019-04-23T00:25:54.390Z,53.03
2019-04-23T00:28:31.403Z,53.28
2019-04-23T00:31:06.811Z,53.33
2019-04-23T00:33:29.685Z,53.53
2019-04-23T00:36:06.376Z,53.62
2019-04-23T00:41:10.216Z,54.10
2019-04-23T00:43:43.136Z,53.97
2019-04-23T00:46:22.298Z,54.26
2019-04-23T00:51:13.832Z,54.85
2019-04-23T00:53:48.077Z,55.00
2019-04-23T00:58:55.272Z,55.25
2019-04-23T01:01:31.963Z,55.30
2019-04-23T01:03:54.786Z,55.54
2019-04-23T01:06:24.118Z,55.42
2019-04-23T01:08:59.847Z,55.88
2019-04-23T01:11:27.475Z,55.89
2019-04-23T01:14:03.456Z,56.26
2019-04-23T01:16:32.860Z,56.31
2019-04-23T01:19:06.841Z,56.70
2019-04-23T01:21:38.853Z,56.78
2019-04-23T01:24:17.742Z,57.10
2019-04-23T01:30:05.303Z,57.50
2019-04-23T01:35:15.133Z,57.69
2019-04-23T01:37:44.682Z,57.71
2019-04-23T01:40:12.162Z,57.59
2019-04-23T01:42:56.903Z,57.28
2019-04-23T01:45:19.809Z,57.18
2019-04-23T01:47:49.622Z,57.33
2019-04-23T01:55:29.300Z,57.21
2019-04-23T01:58:18.954Z,57.68
2019-04-23T02:00:39.206Z,57.40
2019-04-23T02:03:12.835Z,57.54
2019-04-23T02:05:42.619Z,57.03
2019-04-23T02:10:55.317Z,57.72
2019-04-23T02:13:22.348Z,57.52
2019-04-23T02:16:02.953Z,57.74
2019-04-23T02:18:20.628Z,57.72
2019-04-23T02:21:02.363Z,57.82
2019-04-23T02:23:49.008Z,58.29
2019-04-23T02:26:23.297Z,58.22
2019-04-23T02:28:53.245Z,58.24
2019-04-23T02:31:45.239Z,58.47
2019-04-23T02:34:00.653Z,58.64
2019-04-23T02:36:31.718Z,58.70
2019-04-23T02:39:03.282Z,59.16
2019-04-23T02:41:41.395Z,58.92
2019-04-23T02:46:44.154Z,58.92
2019-04-23T02:49:20.544Z,59.61
2019-04-23T02:51:59.408Z,59.40
2019-04-23T02:54:26.787Z,59.67
2019-04-23T02:59:37.387Z,59.78
2019-04-23T03:02:00.437Z,59.82
2019-04-23T03:04:42.233Z,59.81
2019-04-23T03:07:09.456Z,59.42
2019-04-23T03:09:38.766Z,59.76
2019-04-23T03:14:41.730Z,59.57
2019-04-23T03:17:31.014Z,59.37
2019-04-23T03:20:03.817Z,59.36
2019-04-23T03:22:25.214Z,59.48
2019-04-23T03:25:05.231Z,59.60
2019-04-23T03:27:37.527Z,59.77
2019-04-23T03:30:22.460Z,59.46
2019-04-23T03:33:04.318Z,59.45
2019-04-23T03:35:10.208Z,59.59
2019-04-23T03:37:49.027Z,59.58
2019-04-23T03:40:15.763Z,59.71
2019-04-23T03:43:01.300Z,59.88
2019-04-23T03:45:53.441Z,59.87
2019-04-23T03:48:00.885Z,59.87
2019-04-23T03:50:34.519Z,60.33
2019-04-23T03:52:57.639Z,59.36
2019-04-23T03:55:37.347Z,59.33
2019-04-23T03:58:08.036Z,59.51
2019-04-23T04:00:37.317Z,59.86
2019-04-23T04:03:12.803Z,59.50
2019-04-23T04:08:13.243Z,59.36
2019-04-23T04:10:52.374Z,59.47
2019-04-23T04:13:15.971Z,59.46
2019-04-23T04:18:33.054Z,59.47
2019-04-23T04:21:01.088Z,59.81
2019-04-23T04:25:56.830Z,60.67
2019-04-23T04:28:27.835Z,60.40
2019-04-23T04:30:53.891Z,60.55
2019-04-23T04:33:51.000Z,60.86
2019-04-23T04:38:39.997Z,61.21
2019-04-23T04:43:45.618Z,60.72
2019-04-23T04:46:25.393Z,60.88
2019-04-23T04:48:44.485Z,60.69
2019-04-23T04:56:30.409Z,60.34
2019-04-23T04:58:46.709Z,60.00
2019-04-23T05:01:13.831Z,59.73
2019-04-23T05:04:00.068Z,59.46
2019-04-23T05:08:58.679Z,59.27
2019-04-23T05:11:26.321Z,59.14
2019-04-23T05:13:51.451Z,59.58
2019-04-23T05:16:24.261Z,58.90
2019-04-23T05:19:15.873Z,59.20
2019-04-23T05:21:38.825Z,59.38
2019-04-23T05:24:02.902Z,58.78
2019-04-23T05:29:06.247Z,58.95
2019-04-23T05:31:27.914Z,58.50
2019-04-23T05:34:02.920Z,57.19
2019-04-23T05:36:43.633Z,57.81
2019-04-23T05:39:15.451Z,56.98
2019-04-23T05:44:15.468Z,55.93
2019-04-23T05:49:12.742Z,55.90
2019-04-23T05:51:50.980Z,55.12
2019-04-23T05:54:19.036Z,54.75
2019-04-23T05:56:49.031Z,54.51
2019-04-23T05:59:16.401Z,54.71
2019-04-23T06:04:24.803Z,54.06
2019-04-23T06:09:25.260Z,52.96
2019-04-23T06:14:24.969Z,52.31
2019-04-23T06:17:02.124Z,53.58
2019-04-23T06:19:45.947Z,51.66
2019-04-23T06:22:07.497Z,52.28
2019-04-23T06:27:08.491Z,52.07
2019-04-23T06:31:58.805Z,52.12
2019-04-23T06:34:43.213Z,51.22
2019-04-23T06:37:09.338Z,51.87
2019-04-23T06:39:41.307Z,50.49
2019-04-23T06:42:08.069Z,50.11
2019-04-23T06:44:47.008Z,50.77
2019-04-23T06:47:16.324Z,50.27
2019-04-23T06:52:18.327Z,50.46
2019-04-23T06:54:54.332Z,49.06
2019-04-23T06:57:28.842Z,49.78
2019-04-23T06:59:48.663Z,48.99
2019-04-23T07:05:06.636Z,48.42
2019-04-23T07:07:42.615Z,48.43
2019-04-23T07:09:52.391Z,48.69
2019-04-23T07:17:24.340Z,46.89
2019-04-23T07:20:00.279Z,47.65
2019-04-23T07:22:26.777Z,46.84
2019-04-23T07:25:17.616Z,47.03
2019-04-23T07:27:30.541Z,46.14
2019-04-23T07:30:08.373Z,46.46
2019-04-23T07:32:36.007Z,46.94
2019-04-23T07:35:45.959Z,46.94
2019-04-23T07:37:49.541Z,47.65
2019-04-23T07:42:55.143Z,45.08
2019-04-23T07:45:35.304Z,45.54
2019-04-23T07:50:55.643Z,47.22
2019-04-23T07:53:19.645Z,43.74
2019-04-23T07:55:49.884Z,44.12
2019-04-23T08:00:49.186Z,43.71
2019-04-23T08:03:39.326Z,44.17
2019-04-23T08:05:49.508Z,44.47
2019-04-23T08:08:39.365Z,46.17
2019-04-23T08:11:25.812Z,42.61
2019-04-23T08:13:39.871Z,44.29
2019-04-23T08:16:21.755Z,42.95
2019-04-23T08:18:45.151Z,43.63
2019-04-23T08:21:10.351Z,42.86
2019-04-23T08:23:52.185Z,42.48
2019-04-23T08:31:43.902Z,42.27
2019-04-23T08:36:48.604Z,44.68
2019-04-23T08:39:17.931Z,42.28
2019-04-23T08:41:58.093Z,41.70
2019-04-23T08:44:30.228Z,41.18
2019-04-23T08:49:43.556Z,39.98
2019-04-23T08:54:48.393Z,41.17
2019-04-23T08:57:10.430Z,42.79
2019-04-23T09:00:00.386Z,42.32
2019-04-23T09:04:50.263Z,40.79
2019-04-23T09:07:26.545Z,41.74
2019-04-23T09:09:50.793Z,40.02
2019-04-23T09:14:54.740Z,38.84
2019-04-23T09:17:27.644Z,38.44
2019-04-23T09:20:13.291Z,38.30
2019-04-23T09:22:28.966Z,39.76
2019-04-23T09:25:06.617Z,38.75
2019-04-23T09:27:34.634Z,40.61
2019-04-23T09:41:05.886Z,37.99
2019-04-23T09:43:22.790Z,38.02
2019-04-23T09:45:59.811Z,37.46
2019-04-23T09:48:26.495Z,39.06
2019-04-23T09:51:03.143Z,37.07
2019-04-23T09:55:59.801Z,37.58
2019-04-23T09:58:31.261Z,37.10
2019-04-23T10:01:20.515Z,37.19
2019-04-23T10:03:38.568Z,37.07
2019-04-23T10:06:04.231Z,36.88
2019-04-23T10:08:31.985Z,36.52
2019-04-23T10:10:59.685Z,36.34
2019-04-23T10:13:29.708Z,36.31
2019-04-23T10:16:02.181Z,37.15
2019-04-23T10:18:33.186Z,36.25
2019-04-23T10:21:03.362Z,36.85
2019-04-23T10:23:33.489Z,38.83
2019-04-23T10:26:06.154Z,35.95
2019-04-23T10:28:44.859Z,39.36
2019-04-23T10:31:14.650Z,36.66
2019-04-23T10:33:46.180Z,38.44
2019-04-23T10:36:21.123Z,38.44
2019-04-23T10:38:54.771Z,37.66
2019-04-23T10:41:20.170Z,36.23
2019-04-23T10:43:54.389Z,36.09
2019-04-23T10:46:53.717Z,36.19
2019-04-23T10:49:47.855Z,36.24
2019-04-23T10:52:26.224Z,35.67
2019-04-23T10:54:41.900Z,36.63
2019-04-23T11:09:57.052Z,35.73
2019-04-23T11:12:37.590Z,37.49
2019-04-23T11:27:59.735Z,34.78
2019-04-23T11:33:10.081Z,35.35
2019-04-23T11:40:33.289Z,34.01
2019-04-23T11:43:14.728Z,34.38
2019-04-23T11:53:32.020Z,33.53
2019-04-23T11:55:54.042Z,33.24
2019-04-23T12:03:40.862Z,33.37
2019-04-23T12:06:39.065Z,33.28
2019-04-23T12:09:16.080Z,33.53
2019-04-23T12:13:02.887Z,33.31
2019-04-23T12:18:10.149Z,33.86
2019-04-23T12:20:36.213Z,33.55
2019-04-23T12:28:26.406Z,33.56
2019-04-23T12:30:50.775Z,33.26
2019-04-23T12:35:52.028Z,34.83
2019-04-23T12:38:25.649Z,33.87
2019-04-23T12:40:56.111Z,33.44
2019-04-23T12:43:23.796Z,33.20
2019-04-23T12:45:57.844Z,32.89
2019-04-23T12:50:58.704Z,33.34
2019-04-23T12:56:08.963Z,33.01
2019-04-23T12:58:36.060Z,33.94
2019-04-23T13:01:16.344Z,33.81
2019-04-23T13:03:40.840Z,33.20
2019-04-23T13:06:16.944Z,32.72
2019-04-23T13:09:17.588Z,32.44
2019-04-23T13:13:53.551Z,31.73
2019-04-23T13:16:39.914Z,32.06
2019-04-23T13:19:01.371Z,32.56
2019-04-23T13:21:51.730Z,32.42
2019-04-23T13:24:04.212Z,32.63
2019-04-23T13:26:30.739Z,32.43
2019-04-23T13:29:12.094Z,32.22
2019-04-23T13:31:35.802Z,32.40
2019-04-23T13:34:14.846Z,33.78
2019-04-23T13:36:45.371Z,32.67
2019-04-23T13:39:20.238Z,32.65
2019-04-23T13:41:48.262Z,33.25
2019-04-23T13:44:25.886Z,32.74
2019-04-23T13:47:25.733Z,33.83
2019-04-23T13:49:26.092Z,32.33
2019-04-23T13:52:06.036Z,32.03
2019-04-23T13:54:56.560Z,33.16
2019-04-23T13:57:36.377Z,33.14
2019-04-23T13:59:46.868Z,33.02
2019-04-23T14:02:17.611Z,33.06
2019-04-23T14:05:02.116Z,33.74
2019-04-23T14:07:41.760Z,33.80
2019-04-23T14:10:11.833Z,33.58
2019-04-23T14:12:42.224Z,32.79
2019-04-23T14:15:12.592Z,34.16
2019-04-23T14:20:13.751Z,34.37
2019-04-23T14:23:00.106Z,35.19
2019-04-23T14:25:10.128Z,35.33
2019-04-23T14:27:52.164Z,35.98
2019-04-23T14:30:21.894Z,35.38
2019-04-23T14:33:15.416Z,34.14
2019-04-23T14:38:07.421Z,34.50
2019-04-23T14:40:26.389Z,34.87
2019-04-23T14:43:04.223Z,35.25
2019-04-23T14:48:05.959Z,35.09
2019-04-23T14:55:57.169Z,35.30
2019-04-23T14:58:25.350Z,35.60
2019-04-23T15:03:27.319Z,35.90
2019-04-23T15:06:05.343Z,35.71
2019-04-23T15:08:32.065Z,34.97
2019-04-23T15:11:19.241Z,35.52
2019-04-23T15:13:42.807Z,34.54
2019-04-23T15:18:52.575Z,35.09
2019-04-23T15:28:34.016Z,34.83
2019-04-23T15:31:24.798Z,34.83
2019-04-23T15:34:10.861Z,35.20
2019-04-23T15:36:41.354Z,34.98
2019-04-23T15:44:19.316Z,35.34
2019-04-23T15:46:47.090Z,35.89
2019-04-23T15:49:22.975Z,36.46
2019-04-23T15:51:52.569Z,37.36
2019-04-23T15:54:17.825Z,37.02
2019-04-23T15:56:55.025Z,37.08
2019-04-23T16:01:41.426Z,37.20
2019-04-23T16:04:03.291Z,36.86
2019-04-23T16:06:36.811Z,36.85
2019-04-23T16:09:26.041Z,36.74
2019-04-23T16:11:59.663Z,36.79
2019-04-23T16:17:17.456Z,36.79
2019-04-23T16:19:56.761Z,36.87
2019-04-23T16:24:56.058Z,36.92
2019-04-23T16:27:15.016Z,37.44
2019-04-23T16:30:01.986Z,37.70
2019-04-23T16:32:28.088Z,38.25
2019-04-23T16:35:10.690Z,38.28
2019-04-23T16:37:28.848Z,38.27
2019-04-23T16:40:16.321Z,38.15
2019-04-23T16:42:29.668Z,38.42
2019-04-23T16:47:43.103Z,39.05
2019-04-23T16:52:32.773Z,38.67
2019-04-23T16:55:16.640Z,38.81
2019-04-23T16:57:59.896Z,38.80
2019-04-23T17:00:24.727Z,38.89
2019-04-23T17:02:48.520Z,39.00
2019-04-23T17:05:19.648Z,39.41
2019-04-23T17:07:53.782Z,39.21
2019-04-23T17:10:19.463Z,39.74
2019-04-23T17:12:54.791Z,40.01
2019-04-23T17:15:27.470Z,40.09
2019-04-23T17:17:56.275Z,40.10
2019-04-23T17:20:30.727Z,40.65
2019-04-23T17:23:08.651Z,40.84
2019-04-23T17:25:28.436Z,41.30
2019-04-23T17:28:20.137Z,41.30
2019-04-23T17:30:41.811Z,41.63
2019-04-23T17:36:07.102Z,41.84
2019-04-23T17:38:36.115Z,42.14
2019-04-23T17:41:15.668Z,42.31
2019-04-23T17:44:12.324Z,42.18
2019-04-23T17:46:26.952Z,42.56
2019-04-23T17:49:06.034Z,42.54
2019-04-23T17:51:35.928Z,42.90
2019-04-23T17:54:10.887Z,43.24
2019-04-23T17:59:21.947Z,43.68
2019-04-23T18:02:14.709Z,43.80
2019-04-23T18:04:27.181Z,44.10
2019-04-23T18:12:10.224Z,44.54
2019-04-23T18:14:16.291Z,44.87
2019-04-23T18:17:07.150Z,44.96
2019-04-23T18:19:24.586Z,45.21
2019-04-23T18:24:59.083Z,45.58
2019-04-23T18:27:27.513Z,45.81
2019-04-23T18:30:10.917Z,45.99
2019-04-23T18:32:42.917Z,45.86
2019-04-23T18:35:19.297Z,45.83
2019-04-23T18:40:10.726Z,46.55
2019-04-23T18:42:57.660Z,46.34
2019-04-23T18:45:24.454Z,46.56
2019-04-23T18:47:49.152Z,46.70
2019-04-23T18:50:30.594Z,46.83
2019-04-23T18:55:36.008Z,46.81
2019-04-23T18:57:57.351Z,47.16
2019-04-23T19:00:37.231Z,47.39
2019-04-23T19:03:11.387Z,47.32
2019-04-23T19:06:07.042Z,47.43
2019-04-23T19:08:53.479Z,47.66
2019-04-23T19:11:14.561Z,48.22
2019-04-23T19:13:46.084Z,48.33
2019-04-23T19:16:21.397Z,48.37
2019-04-23T19:18:49.720Z,48.75
2019-04-23T19:21:44.558Z,48.72
2019-04-23T19:26:32.673Z,48.76
2019-04-23T19:31:33.869Z,49.06
2019-04-23T19:39:21.419Z,49.46
2019-04-23T19:44:18.200Z,49.43
2019-04-23T19:51:53.434Z,49.89
2019-04-23T19:59:47.966Z,50.01
2019-04-23T20:02:00.436Z,49.90
2019-04-23T20:04:39.475Z,50.15
2019-04-23T20:07:13.187Z,49.85
2019-04-23T20:09:44.129Z,49.67
2019-04-23T20:12:06.263Z,50.07
2019-04-23T20:14:50.472Z,49.77
2019-04-23T20:19:57.107Z,49.71
2019-04-23T20:25:04.981Z,50.11
2019-04-23T20:31:44.984Z,50.16
2019-04-23T20:32:55.352Z,49.93
2019-04-23T20:35:00.245Z,50.10
2019-04-23T20:37:48.748Z,50.01
2019-04-23T20:39:59.978Z,49.97
2019-04-23T20:45:08.326Z,49.83
2019-04-23T20:47:30.381Z,50.13
2019-04-23T20:50:13.734Z,50.18
2019-04-23T20:52:22.161Z,50.12
2019-04-23T21:00:15.765Z,50.72
2019-04-23T21:05:20.834Z,51.04
2019-04-23T21:07:57.925Z,51.15
2019-04-23T21:10:35.852Z,51.25
2019-04-23T21:15:39.301Z,51.55
2019-04-23T21:20:43.374Z,51.97
2019-04-23T21:23:11.203Z,52.18
2019-04-23T21:25:46.439Z,52.30
2019-04-23T21:33:38.239Z,52.59
2019-04-23T21:41:46.667Z,53.18
2019-04-23T21:46:48.289Z,53.55
2019-04-23T21:49:18.204Z,53.84
2019-04-23T21:52:02.208Z,53.90
2019-04-23T21:54:21.640Z,54.11
2019-04-23T21:56:47.062Z,54.30
2019-04-23T21:59:35.343Z,54.30
2019-04-23T22:06:54.107Z,54.85
2019-04-23T22:12:03.521Z,55.30
2019-04-23T22:14:34.180Z,55.31
2019-04-23T22:17:03.005Z,55.47
2019-04-23T22:19:38.337Z,55.50
2019-04-23T22:22:01.076Z,55.71
2019-04-23T22:24:43.164Z,55.74
2019-04-23T22:27:11.967Z,55.87
2019-04-23T22:29:39.242Z,55.96
2019-04-23T22:32:23.485Z,56.10
2019-04-23T22:34:50.513Z,56.11
2019-04-23T22:37:17.653Z,56.16
2019-04-23T22:39:54.176Z,56.42
2019-04-23T22:42:49.901Z,56.62
2019-04-23T22:45:10.654Z,56.68
2019-04-23T22:47:28.200Z,56.83
2019-04-23T22:50:02.179Z,56.96
2019-04-23T22:52:32.248Z,57.23
2019-04-23T22:55:07.697Z,57.17
2019-04-23T22:57:56.714Z,57.41
2019-04-23T23:00:14.687Z,57.52
2019-04-23T23:03:01.239Z,57.57
2019-04-23T23:05:39.802Z,57.61
2019-04-23T23:08:01.436Z,57.85
2019-04-23T23:15:44.911Z,58.26
2019-04-23T23:20:46.467Z,58.35
2019-04-23T23:23:11.502Z,58.28
2019-04-23T23:26:02.393Z,58.64
2019-04-23T23:28:20.577Z,58.64
2019-04-23T23:31:00.821Z,58.53
2019-04-23T23:36:03.150Z,59.11
2019-04-23T23:38:41.595Z,59.10
2019-04-23T23:41:19.127Z,59.27
2019-04-23T23:43:29.728Z,59.15
2019-04-23T23:48:34.968Z,58.98
2019-04-23T23:53:51.018Z,59.94
2019-04-23T23:56:20.589Z,60.22
